createdAt,value
2022-10-16T00:00:54.074Z,33.00
2022-10-16T00:01:56.447Z,37.78
2022-10-16T00:02:59.009Z,34.00
2022-10-16T00:04:01.617Z,40.90
2022-10-16T00:05:04.991Z,34.00
2022-10-16T00:06:08.488Z,34.64
2022-10-16T00:07:11.982Z,33.60
2022-10-16T00:08:15.455Z,34.10
2022-10-16T00:09:17.945Z,38.55
2022-10-16T00:10:21.795Z,38.20
2022-10-16T00:11:26.446Z,39.10
2022-10-16T00:12:28.665Z,33.90
2022-10-16T00:13:32.287Z,32.60
2022-10-16T00:14:34.281Z,38.40
2022-10-16T00:15:37.375Z,37.50
2022-10-16T00:16:40.558Z,39.80
2022-10-16T00:17:43.667Z,37.10
2022-10-16T00:18:45.700Z,32.40
2022-10-16T00:19:47.600Z,35.56
2022-10-16T00:20:49.504Z,37.00
2022-10-16T00:21:51.281Z,40.11
2022-10-16T00:22:53.483Z,37.00
2022-10-16T00:23:58.279Z,34.10
2022-10-16T00:25:00.393Z,35.50
2022-10-16T00:26:06.550Z,35.90
2022-10-16T00:27:08.300Z,39.90
2022-10-16T00:28:10.168Z,34.78
2022-10-16T00:29:12.062Z,32.80
2022-10-16T00:30:14.184Z,35.40
2022-10-16T00:31:17.522Z,34.56
2022-10-16T00:33:32.620Z,36.80
2022-10-16T00:34:35.034Z,36.40
2022-10-16T00:35:36.893Z,38.90
2022-10-16T00:36:39.811Z,32.67
2022-10-16T00:37:41.657Z,30.45
2022-10-16T00:38:44.190Z,33.33
2022-10-16T00:39:45.970Z,30.10
2022-10-16T00:40:48.107Z,30.70
2022-10-16T00:41:49.928Z,29.11
2022-10-16T00:42:51.792Z,30.56
2022-10-16T00:44:00.035Z,30.11
2022-10-16T00:45:03.048Z,24.50
2022-10-16T00:47:31.709Z,32.70
2022-10-16T00:48:33.910Z,30.00
2022-10-16T00:49:35.988Z,28.40
2022-10-16T00:50:38.523Z,25.40
2022-10-16T00:51:46.402Z,28.70
2022-10-16T00:52:50.254Z,31.90
2022-10-16T00:53:52.753Z,30.20
2022-10-16T00:54:55.610Z,28.80
2022-10-16T00:55:57.622Z,22.45
2022-10-16T00:57:02.426Z,23.50
2022-10-16T00:58:04.555Z,31.80
2022-10-16T00:59:10.062Z,29.70
2022-10-16T01:00:17.508Z,27.30
2022-10-16T01:01:19.517Z,27.90
2022-10-16T01:02:21.801Z,28.78
2022-10-16T01:03:27.264Z,27.30
2022-10-16T01:04:32.850Z,32.40
2022-10-16T01:05:41.626Z,29.40
2022-10-16T01:06:49.879Z,24.00
2022-10-16T01:07:58.357Z,30.20
2022-10-16T01:09:16.214Z,30.70
2022-10-16T01:10:37.126Z,30.10
2022-10-16T01:11:45.697Z,31.10
2022-10-16T01:13:03.444Z,31.00
2022-10-16T01:14:09.023Z,31.70
2022-10-16T01:15:29.989Z,32.60
2022-10-16T01:16:41.646Z,20.20
2022-10-16T01:17:47.929Z,31.80
2022-10-16T01:18:56.220Z,33.80
2022-10-16T01:20:18.500Z,29.10
2022-10-16T01:21:26.554Z,26.20
2022-10-16T01:22:32.075Z,29.80
2022-10-16T01:23:55.663Z,27.90
2022-10-16T01:25:01.825Z,31.30
2022-10-16T01:26:16.671Z,29.80
2022-10-16T01:27:32.058Z,32.90
2022-10-16T01:28:46.335Z,31.50
2022-10-16T01:30:13.426Z,31.40
2022-10-16T01:31:19.120Z,25.20
2022-10-16T01:32:41.988Z,31.10
2022-10-16T01:33:47.593Z,33.80
2022-10-16T01:35:08.406Z,29.60
2022-10-16T01:36:17.662Z,37.40
2022-10-16T01:37:23.662Z,25.50
2022-10-16T01:38:35.391Z,31.70
2022-10-16T01:39:40.335Z,28.90
2022-10-16T01:40:49.069Z,36.60
2022-10-16T01:41:54.620Z,31.00
2022-10-16T01:43:06.508Z,32.70
2022-10-16T01:44:15.633Z,31.30
2022-10-16T01:45:20.205Z,19.60
2022-10-16T01:46:24.596Z,28.80
2022-10-16T01:47:28.629Z,31.80
2022-10-16T01:48:33.236Z,34.00
2022-10-16T01:49:38.586Z,31.90
2022-10-16T01:50:44.122Z,27.50
2022-10-16T01:51:49.508Z,29.50
2022-10-16T01:52:55.018Z,27.30
2022-10-16T01:54:00.562Z,28.40
2022-10-16T01:55:07.237Z,25.50
2022-10-16T01:56:12.678Z,29.80
2022-10-16T01:57:16.436Z,26.90
2022-10-16T01:58:18.464Z,26.00
2022-10-16T01:59:23.366Z,28.67
2022-10-16T02:00:26.936Z,26.90
2022-10-16T02:01:32.045Z,27.10
2022-10-16T02:02:34.628Z,29.50
2022-10-16T02:03:40.576Z,30.50
2022-10-16T02:05:59.371Z,25.80
2022-10-16T02:07:01.604Z,33.10
2022-10-16T02:08:05.617Z,31.40
2022-10-16T02:09:07.972Z,30.00
2022-10-16T02:10:11.530Z,30.90
2022-10-16T02:11:13.349Z,27.90
2022-10-16T02:12:31.927Z,27.44
2022-10-16T02:13:46.577Z,25.30
2022-10-16T02:14:48.795Z,30.40
2022-10-16T02:15:52.335Z,30.60
2022-10-16T02:16:56.203Z,28.20
2022-10-16T02:17:57.996Z,23.33
2022-10-16T02:19:00.183Z,29.20
2022-10-16T02:20:03.830Z,31.80
2022-10-16T02:21:09.426Z,26.60
2022-10-16T02:22:17.973Z,28.80
2022-10-16T02:23:23.611Z,31.60
2022-10-16T02:24:35.691Z,21.80
2022-10-16T02:25:41.251Z,28.60
2022-10-16T02:27:04.073Z,31.20
2022-10-16T02:28:24.934Z,29.20
2022-10-16T02:29:28.138Z,38.40
2022-10-16T02:30:45.643Z,29.73
2022-10-16T02:31:51.210Z,30.40
2022-10-16T02:32:55.739Z,33.60
2022-10-16T02:34:01.586Z,30.00
2022-10-16T02:35:05.422Z,17.00
2022-10-16T02:36:08.604Z,27.50
2022-10-16T02:37:11.045Z,26.40
2022-10-16T02:38:15.468Z,32.70
2022-10-16T02:39:18.656Z,32.20
2022-10-16T02:40:24.392Z,31.70
2022-10-16T02:41:25.211Z,30.40
2022-10-16T02:42:36.661Z,26.00
2022-10-16T02:43:38.739Z,30.20
2022-10-16T02:44:40.961Z,29.67
2022-10-16T02:45:42.745Z,28.80
2022-10-16T02:46:44.645Z,28.67
2022-10-16T02:47:46.984Z,23.60
2022-10-16T02:48:48.704Z,29.00
2022-10-16T02:49:50.321Z,26.44
2022-10-16T02:50:52.282Z,24.78
2022-10-16T02:51:54.112Z,26.11
2022-10-16T02:52:56.032Z,24.33
2022-10-16T02:53:58.020Z,21.10
2022-10-16T02:54:59.863Z,30.22
2022-10-16T02:56:01.911Z,23.44
2022-10-16T02:57:03.701Z,26.22
2022-10-16T02:58:06.270Z,26.89
2022-10-16T02:59:07.946Z,24.20
2022-10-16T03:00:13.412Z,27.60
2022-10-16T03:01:15.829Z,25.90
2022-10-16T03:02:18.205Z,24.30
2022-10-16T03:03:19.887Z,21.60
2022-10-16T03:04:21.617Z,24.44
2022-10-16T03:05:23.464Z,24.89
2022-10-16T03:06:25.864Z,21.11
2022-10-16T03:07:28.480Z,23.70
2022-10-16T03:08:30.523Z,24.80
2022-10-16T03:09:32.368Z,22.89
2022-10-16T03:10:35.087Z,23.30
2022-10-16T03:11:37.116Z,25.33
2022-10-16T03:12:38.945Z,25.20
2022-10-16T03:13:40.592Z,24.11
2022-10-16T03:14:42.373Z,26.89
2022-10-16T03:15:44.392Z,25.44
2022-10-16T03:16:46.298Z,22.50
2022-10-16T03:17:48.313Z,31.78
2022-10-16T03:18:50.208Z,24.20
2022-10-16T03:19:52.256Z,26.89
2022-10-16T03:20:54.266Z,26.40
2022-10-16T03:21:56.641Z,24.70
2022-10-16T03:22:59.239Z,23.33
2022-10-16T03:24:01.358Z,23.20
2022-10-16T03:25:04.240Z,23.60
2022-10-16T03:26:06.363Z,23.80
2022-10-16T03:27:08.404Z,24.67
2022-10-16T03:28:10.187Z,21.40
2022-10-16T03:29:11.957Z,25.78
2022-10-16T03:30:14.948Z,21.27
2022-10-16T03:31:16.777Z,24.44
2022-10-16T03:32:18.488Z,23.33
2022-10-16T03:33:20.350Z,20.22
2022-10-16T03:34:22.291Z,22.22
2022-10-16T03:35:24.869Z,24.67
2022-10-16T03:36:27.024Z,15.82
2022-10-16T03:37:31.057Z,27.67
2022-10-16T03:38:32.988Z,22.60
2022-10-16T03:39:34.643Z,22.89
2022-10-16T03:40:36.365Z,23.33
2022-10-16T03:41:38.292Z,28.11
2022-10-16T03:42:40.130Z,21.89
2022-10-16T03:43:41.870Z,24.78
2022-10-16T03:44:43.600Z,26.22
2022-10-16T03:45:45.349Z,25.67
2022-10-16T03:46:47.075Z,26.11
2022-10-16T03:47:49.883Z,27.89
2022-10-16T03:48:51.736Z,23.64
2022-10-16T03:49:53.578Z,24.11
2022-10-16T03:50:55.517Z,26.56
2022-10-16T03:51:57.346Z,20.78
2022-10-16T03:52:59.526Z,24.89
2022-10-16T03:54:01.363Z,23.10
2022-10-16T03:55:03.449Z,21.11
2022-10-16T03:56:06.319Z,23.90
2022-10-16T03:57:08.993Z,20.50
2022-10-16T03:58:11.418Z,18.90
2022-10-16T03:59:13.424Z,23.70
2022-10-16T04:00:15.471Z,22.40
2022-10-16T04:01:17.222Z,20.33
2022-10-16T04:02:19.602Z,21.67
2022-10-16T04:03:22.038Z,23.00
2022-10-16T04:04:24.348Z,20.80
2022-10-16T04:05:26.273Z,23.40
2022-10-16T04:06:28.775Z,23.20
2022-10-16T04:07:31.136Z,22.80
2022-10-16T04:08:33.545Z,22.10
2022-10-16T04:09:35.806Z,30.40
2022-10-16T04:10:38.039Z,25.60
2022-10-16T04:11:41.050Z,21.20
2022-10-16T04:12:42.901Z,20.20
2022-10-16T04:13:44.562Z,24.67
2022-10-16T04:14:46.538Z,24.00
2022-10-16T04:15:48.318Z,25.00
2022-10-16T04:16:50.430Z,20.40
2022-10-16T04:17:52.701Z,23.67
2022-10-16T04:18:54.610Z,24.30
2022-10-16T04:19:56.350Z,21.67
2022-10-16T04:21:03.957Z,22.89
2022-10-16T04:22:05.834Z,22.30
2022-10-16T04:23:07.658Z,20.89
2022-10-16T04:24:09.424Z,27.78
2022-10-16T04:25:11.557Z,20.22
2022-10-16T04:26:13.366Z,24.60
2022-10-16T04:27:15.093Z,23.11
2022-10-16T04:28:16.770Z,19.11
2022-10-16T04:29:18.635Z,22.22
2022-10-16T04:30:21.736Z,20.60
2022-10-16T04:31:24.046Z,24.00
2022-10-16T04:32:26.870Z,24.60
2022-10-16T04:33:28.727Z,23.91
2022-10-16T04:34:30.626Z,23.11
2022-10-16T04:35:32.470Z,24.22
2022-10-16T04:36:34.477Z,26.22
2022-10-16T04:37:36.139Z,21.44
2022-10-16T04:38:37.989Z,21.78
2022-10-16T04:39:40.365Z,25.33
2022-10-16T04:40:43.192Z,25.10
2022-10-16T04:41:46.343Z,26.00
2022-10-16T04:42:48.160Z,22.27
2022-10-16T04:43:50.495Z,24.78
2022-10-16T04:44:52.298Z,19.20
2022-10-16T04:45:54.049Z,22.89
2022-10-16T04:46:55.862Z,18.00
2022-10-16T04:47:58.615Z,21.56
2022-10-16T04:49:00.406Z,19.30
2022-10-16T04:50:03.171Z,14.44
2022-10-16T04:51:05.402Z,20.80
2022-10-16T04:52:08.155Z,23.20
2022-10-16T04:53:10.590Z,13.91
2022-10-16T04:54:13.362Z,24.10
2022-10-16T04:55:15.304Z,19.36
2022-10-16T04:56:17.499Z,21.50
2022-10-16T04:57:19.216Z,23.33
2022-10-16T04:58:21.238Z,20.44
2022-10-16T04:59:24.419Z,22.70
2022-10-16T05:00:27.952Z,24.60
2022-10-16T05:01:29.903Z,21.70
2022-10-16T05:02:32.115Z,19.33
2022-10-16T05:03:34.798Z,21.00
2022-10-16T05:04:36.786Z,21.90
2022-10-16T05:05:43.800Z,23.20
2022-10-16T05:06:45.828Z,25.20
2022-10-16T05:07:48.252Z,21.33
2022-10-16T05:08:50.198Z,22.90
2022-10-16T05:09:52.112Z,23.44
2022-10-16T05:10:54.215Z,22.50
2022-10-16T05:11:56.290Z,21.60
2022-10-16T05:12:58.244Z,29.33
2022-10-16T05:14:00.629Z,22.44
2022-10-16T05:15:03.745Z,28.40
2022-10-16T05:16:06.666Z,17.00
2022-10-16T05:17:08.604Z,22.10
2022-10-16T05:18:10.454Z,22.50
2022-10-16T05:19:26.788Z,25.20
2022-10-16T05:20:16.869Z,21.90
2022-10-16T05:21:18.706Z,17.89
2022-10-16T05:22:21.033Z,24.67
2022-10-16T05:23:22.950Z,20.60
2022-10-16T05:24:25.716Z,21.20
2022-10-16T05:25:27.584Z,20.90
2022-10-16T05:26:29.604Z,25.00
2022-10-16T05:27:31.415Z,22.67
2022-10-16T05:28:33.524Z,21.33
2022-10-16T05:29:35.448Z,26.10
2022-10-16T05:30:38.100Z,27.67
2022-10-16T05:31:40.348Z,24.80
2022-10-16T05:32:44.303Z,22.50
2022-10-16T05:33:46.254Z,29.20
2022-10-16T05:34:48.008Z,25.30
2022-10-16T05:35:50.695Z,26.44
2022-10-16T05:36:53.129Z,26.90
2022-10-16T05:37:55.198Z,24.90
2022-10-16T05:38:57.542Z,27.40
2022-10-16T05:39:59.401Z,25.00
2022-10-16T05:41:01.477Z,26.11
2022-10-16T05:42:03.705Z,26.50
2022-10-16T05:43:06.634Z,25.10
2022-10-16T05:44:08.815Z,28.70
2022-10-16T05:45:11.731Z,23.90
2022-10-16T05:46:14.687Z,24.10
2022-10-16T05:47:16.554Z,20.60
2022-10-16T05:48:18.422Z,23.50
2022-10-16T05:49:20.274Z,24.89
2022-10-16T05:50:22.018Z,28.00
2022-10-16T05:51:23.990Z,26.89
2022-10-16T05:52:27.275Z,27.44
2022-10-16T05:53:31.098Z,28.00
2022-10-16T05:54:32.927Z,26.50
2022-10-16T05:55:34.668Z,13.33
2022-10-16T05:56:36.781Z,28.00
2022-10-16T05:57:38.947Z,24.20
2022-10-16T05:58:41.265Z,29.80
2022-10-16T05:59:44.137Z,4.70
2022-10-16T06:00:55.780Z,28.80
2022-10-16T06:01:57.910Z,27.50
2022-10-16T06:02:59.656Z,29.33
2022-10-16T06:04:02.518Z,29.67
2022-10-16T06:05:05.756Z,29.70
2022-10-16T06:06:14.059Z,29.90
2022-10-16T06:07:16.925Z,27.00
2022-10-16T06:08:21.968Z,26.18
2022-10-16T06:09:23.819Z,27.90
2022-10-16T06:10:25.569Z,29.67
2022-10-16T06:11:30.856Z,20.67
2022-10-16T06:12:32.862Z,21.70
2022-10-16T06:13:35.502Z,25.60
2022-10-16T06:14:37.368Z,31.10
2022-10-16T06:15:40.242Z,28.22
2022-10-16T06:16:42.773Z,27.91
2022-10-16T06:17:44.579Z,26.50
2022-10-16T06:18:47.219Z,29.33
2022-10-16T06:19:49.105Z,32.00
2022-10-16T06:20:51.601Z,25.90
2022-10-16T06:21:53.377Z,28.70
2022-10-16T06:22:55.171Z,29.11
2022-10-16T06:23:58.501Z,29.00
2022-10-16T06:25:00.901Z,26.40
2022-10-16T06:26:13.697Z,23.50
2022-10-16T06:27:16.109Z,24.20
2022-10-16T06:28:18.133Z,30.60
2022-10-16T06:29:20.531Z,26.90
2022-10-16T06:30:22.490Z,27.50
2022-10-16T06:31:26.004Z,25.67
2022-10-16T06:32:28.232Z,26.50
2022-10-16T06:33:30.256Z,26.90
2022-10-16T06:34:32.048Z,29.00
2022-10-16T06:35:34.212Z,29.56
2022-10-16T06:36:37.053Z,28.20
2022-10-16T06:37:39.022Z,31.10
2022-10-16T06:38:42.733Z,24.78
2022-10-16T06:39:45.098Z,27.30
2022-10-16T06:40:47.133Z,19.10
2022-10-16T06:41:49.428Z,29.30
2022-10-16T06:42:51.430Z,30.50
2022-10-16T06:43:53.289Z,25.00
2022-10-16T06:44:55.272Z,29.67
2022-10-16T06:45:58.656Z,26.00
2022-10-16T06:47:00.666Z,32.10
2022-10-16T06:48:03.793Z,24.11
2022-10-16T06:49:05.560Z,26.10
2022-10-16T06:50:08.222Z,31.50
2022-10-16T06:51:14.893Z,26.60
2022-10-16T06:52:17.096Z,26.80
2022-10-16T06:53:19.906Z,28.40
2022-10-16T06:54:21.687Z,25.60
2022-10-16T06:55:23.430Z,22.33
2022-10-16T06:56:27.564Z,27.11
2022-10-16T06:57:30.373Z,25.90
2022-10-16T06:58:32.166Z,24.00
2022-10-16T06:59:33.832Z,25.89
2022-10-16T07:00:35.568Z,23.78
2022-10-16T07:01:38.718Z,23.89
2022-10-16T07:02:40.728Z,21.90
2022-10-16T07:03:44.848Z,21.78
2022-10-16T07:04:46.795Z,22.40
2022-10-16T07:05:48.625Z,25.44
2022-10-16T07:06:50.586Z,24.78
2022-10-16T07:07:53.277Z,19.89
2022-10-16T07:08:55.169Z,18.30
2022-10-16T07:09:56.902Z,22.56
2022-10-16T07:11:02.068Z,16.90
2022-10-16T07:12:06.653Z,20.90
2022-10-16T07:13:08.548Z,22.80
2022-10-16T07:14:19.065Z,19.56
2022-10-16T07:15:20.812Z,17.70
2022-10-16T07:16:31.626Z,19.78
2022-10-16T07:17:33.487Z,18.00
2022-10-16T07:18:36.243Z,11.56
2022-10-16T07:19:38.080Z,17.64
2022-10-16T07:20:40.596Z,18.40
2022-10-16T07:21:42.992Z,20.44
2022-10-16T07:22:45.393Z,20.60
2022-10-16T07:23:56.184Z,22.30
2022-10-16T07:24:58.046Z,20.80
2022-10-16T07:26:00.281Z,21.56
2022-10-16T07:27:03.247Z,20.30
2022-10-16T07:28:06.119Z,21.91
2022-10-16T07:29:14.936Z,20.18
2022-10-16T07:30:17.572Z,19.00
2022-10-16T07:31:20.862Z,20.10
2022-10-16T07:32:22.914Z,18.50
2022-10-16T07:33:24.595Z,19.11
2022-10-16T07:34:26.455Z,18.11
2022-10-16T07:35:29.508Z,17.56
2022-10-16T07:36:32.545Z,16.70
2022-10-16T07:37:34.465Z,18.90
2022-10-16T07:38:36.521Z,17.78
2022-10-16T07:39:38.316Z,21.90
2022-10-16T07:40:41.391Z,21.40
2022-10-16T07:41:44.870Z,21.40
2022-10-16T07:42:47.681Z,21.30
2022-10-16T07:43:53.322Z,22.00
2022-10-16T07:44:55.290Z,19.10
2022-10-16T07:46:02.432Z,25.33
2022-10-16T07:47:03.789Z,23.50
2022-10-16T07:48:06.102Z,19.56
2022-10-16T07:49:10.154Z,21.20
2022-10-16T07:50:12.417Z,19.80
2022-10-16T07:51:17.838Z,22.40
2022-10-16T07:52:21.060Z,22.40
2022-10-16T07:53:26.216Z,16.30
2022-10-16T07:54:27.369Z,22.40
2022-10-16T07:55:30.154Z,21.30
2022-10-16T07:56:33.044Z,19.70
2022-10-16T07:57:35.612Z,20.11
2022-10-16T07:58:38.693Z,19.60
2022-10-16T07:59:40.583Z,20.20
2022-10-16T08:00:43.086Z,21.00
2022-10-16T08:01:47.162Z,13.60
2022-10-16T08:02:49.505Z,22.30
2022-10-16T08:03:52.731Z,17.44
2022-10-16T08:04:54.736Z,17.00
2022-10-16T08:05:58.178Z,17.44
2022-10-16T08:07:01.439Z,19.50
2022-10-16T08:08:05.409Z,14.09
2022-10-16T08:09:09.451Z,16.50
2022-10-16T08:11:27.379Z,17.50
2022-10-16T08:12:29.299Z,22.30
2022-10-16T08:13:32.257Z,20.11
2022-10-16T08:14:34.134Z,19.00
2022-10-16T08:15:36.034Z,20.89
2022-10-16T08:16:38.759Z,19.80
2022-10-16T08:17:40.461Z,17.60
2022-10-16T08:18:43.063Z,20.44
2022-10-16T08:19:47.781Z,24.30
2022-10-16T08:20:56.022Z,17.70
2022-10-16T08:21:57.868Z,16.10
2022-10-16T08:23:01.112Z,21.44
2022-10-16T08:24:03.210Z,17.30
2022-10-16T08:25:05.728Z,22.20
2022-10-16T08:26:09.297Z,20.20
2022-10-16T08:27:11.094Z,30.50
2022-10-16T08:28:12.719Z,16.67
2022-10-16T08:29:15.718Z,17.11
2022-10-16T08:30:21.553Z,15.10
2022-10-16T08:31:24.350Z,17.30
2022-10-16T08:32:27.604Z,18.90
2022-10-16T08:33:30.313Z,18.90
2022-10-16T08:34:32.248Z,18.40
2022-10-16T08:35:34.695Z,22.44
2022-10-16T08:36:38.005Z,19.27
2022-10-16T08:37:40.704Z,16.18
2022-10-16T08:38:43.139Z,16.40
2022-10-16T08:39:44.868Z,16.70
2022-10-16T08:40:51.246Z,14.82
2022-10-16T08:42:05.863Z,13.30
2022-10-16T08:43:20.324Z,17.20
2022-10-16T08:44:38.579Z,22.10
2022-10-16T08:45:47.547Z,14.40
2022-10-16T08:47:14.533Z,15.80
2022-10-16T08:48:43.039Z,20.50
2022-10-16T08:49:48.662Z,15.60
2022-10-16T08:50:54.400Z,13.90
2022-10-16T08:51:57.163Z,11.00
2022-10-16T08:52:59.713Z,8.30
2022-10-16T08:54:29.418Z,14.70
2022-10-16T08:55:41.695Z,14.30
2022-10-16T08:56:49.659Z,27.60
2022-10-16T08:57:55.060Z,13.70
2022-10-16T08:59:01.527Z,21.40
2022-10-16T09:00:09.410Z,15.10
2022-10-16T09:01:18.762Z,30.30
2022-10-16T09:02:32.930Z,14.10
2022-10-16T09:03:52.530Z,8.50
2022-10-16T09:07:01.233Z,8.20
2022-10-16T09:08:13.433Z,7.70
2022-10-16T09:09:45.760Z,6.80
2022-10-16T09:11:05.701Z,9.50
2022-10-16T09:12:41.914Z,7.50
2022-10-16T09:14:09.582Z,10.80
2022-10-16T09:15:16.360Z,11.60
2022-10-16T09:16:38.375Z,10.20
2022-10-16T09:18:15.867Z,11.50
2022-10-16T09:19:34.139Z,10.60
2022-10-16T09:22:14.259Z,12.80
2022-10-16T09:23:28.139Z,10.10
2022-10-16T09:24:37.914Z,9.20
2022-10-16T09:25:43.769Z,9.00
2022-10-16T09:26:48.294Z,10.00
2022-10-16T09:27:53.400Z,9.50
2022-10-16T09:28:56.220Z,6.90
2022-10-16T09:29:59.975Z,9.20
2022-10-16T09:31:02.221Z,9.80
2022-10-16T09:32:16.629Z,6.67
2022-10-16T09:33:25.316Z,7.60
2022-10-16T09:34:37.685Z,8.30
2022-10-16T09:35:43.633Z,9.00
2022-10-16T09:36:46.878Z,9.60
2022-10-16T09:37:52.331Z,9.45
2022-10-16T09:39:09.767Z,8.80
2022-10-16T09:40:16.173Z,9.10
2022-10-16T09:41:21.678Z,10.50
2022-10-16T09:42:29.352Z,9.00
2022-10-16T09:43:40.880Z,12.10
2022-10-16T09:44:44.718Z,10.00
2022-10-16T09:46:04.702Z,9.70
2022-10-16T09:47:10.217Z,9.70
2022-10-16T09:48:15.253Z,11.00
2022-10-16T09:49:26.594Z,10.00
2022-10-16T09:50:29.879Z,11.20
2022-10-16T09:51:34.941Z,10.30
2022-10-16T09:52:36.851Z,10.50
2022-10-16T09:53:44.816Z,2.44
2022-10-16T09:54:55.681Z,11.00
2022-10-16T09:55:58.242Z,9.30
2022-10-16T09:57:10.345Z,10.20
2022-10-16T09:58:14.210Z,8.90
2022-10-16T09:59:18.071Z,10.00
2022-10-16T10:00:23.652Z,9.40
2022-10-16T10:01:30.267Z,7.60
2022-10-16T10:02:38.123Z,10.40
2022-10-16T10:03:44.936Z,11.50
2022-10-16T10:04:55.416Z,10.40
2022-10-16T10:06:01.281Z,10.80
2022-10-16T10:07:02.277Z,10.20
2022-10-16T10:08:05.903Z,9.60
2022-10-16T10:09:30.570Z,9.50
2022-10-16T10:10:36.720Z,7.90
2022-10-16T10:11:41.854Z,8.60
2022-10-16T10:12:46.217Z,11.50
2022-10-16T10:13:49.218Z,9.90
2022-10-16T10:14:54.783Z,7.00
2022-10-16T10:15:57.798Z,6.90
2022-10-16T10:17:15.692Z,6.40
2022-10-16T10:18:24.072Z,10.10
2022-10-16T10:19:28.149Z,11.10
2022-10-16T10:20:34.657Z,8.40
2022-10-16T10:21:39.477Z,10.50
2022-10-16T10:22:45.896Z,10.00
2022-10-16T10:23:56.266Z,12.40
2022-10-16T10:25:11.033Z,14.40
2022-10-16T10:26:17.757Z,9.70
2022-10-16T10:27:21.410Z,5.70
2022-10-16T10:28:55.148Z,11.80
2022-10-16T10:30:03.773Z,11.40
2022-10-16T10:31:28.227Z,13.10
2022-10-16T10:32:52.724Z,6.70
2022-10-16T10:34:10.487Z,15.50
2022-10-16T10:35:25.719Z,11.60
2022-10-16T10:36:34.839Z,11.30
2022-10-16T10:37:55.619Z,14.90
2022-10-16T10:39:04.215Z,11.20
2022-10-16T10:40:29.587Z,9.50
2022-10-16T10:41:55.076Z,12.80
2022-10-16T10:43:01.198Z,12.90
2022-10-16T10:44:41.478Z,9.80
2022-10-16T10:45:46.894Z,8.70
2022-10-16T10:46:58.152Z,7.50
2022-10-16T10:48:32.883Z,12.50
2022-10-16T10:49:55.060Z,6.60
2022-10-16T10:51:23.452Z,7.20
2022-10-16T10:52:37.725Z,9.30
2022-10-16T10:53:48.975Z,8.60
2022-10-16T10:55:12.763Z,12.00
2022-10-16T10:56:18.531Z,6.60
2022-10-16T10:58:59.575Z,9.00
2022-10-16T11:00:39.998Z,7.30
2022-10-16T11:01:58.056Z,10.00
2022-10-16T11:03:25.414Z,9.50
2022-10-16T11:04:42.901Z,10.60
2022-10-16T11:06:00.844Z,6.22
2022-10-16T11:07:06.435Z,10.30
2022-10-16T11:08:15.209Z,9.20
2022-10-16T11:09:21.057Z,8.50
2022-10-16T11:10:26.637Z,6.30
2022-10-16T11:11:49.028Z,8.20
2022-10-16T11:12:58.424Z,6.40
2022-10-16T11:14:19.441Z,10.90
2022-10-16T11:15:31.622Z,10.30
2022-10-16T11:16:37.764Z,10.40
2022-10-16T11:17:43.330Z,10.40
2022-10-16T11:19:14.704Z,13.00
2022-10-16T11:21:59.018Z,11.80
2022-10-16T11:23:37.877Z,8.50
2022-10-16T11:24:55.983Z,8.90
2022-10-16T11:26:02.756Z,6.50
2022-10-16T11:27:09.546Z,6.00
2022-10-16T11:28:21.075Z,6.50
2022-10-16T11:30:58.427Z,7.00
2022-10-16T11:33:27.256Z,7.90
2022-10-16T11:34:42.012Z,8.60
2022-10-16T11:36:13.644Z,6.10
2022-10-16T11:37:22.128Z,9.40
2022-10-16T11:38:39.156Z,13.50
2022-10-16T11:39:44.486Z,13.50
2022-10-16T11:40:49.051Z,5.30
2022-10-16T11:41:58.708Z,9.40
2022-10-16T11:43:19.713Z,10.80
2022-10-16T11:44:54.924Z,8.00
2022-10-16T11:46:00.513Z,7.90
2022-10-16T11:47:33.965Z,7.10
2022-10-16T11:48:33.693Z,10.40
2022-10-16T11:49:38.595Z,11.20
2022-10-16T11:50:56.593Z,7.20
2022-10-16T11:52:28.232Z,8.00
2022-10-16T11:53:49.097Z,8.80
2022-10-16T11:55:02.797Z,12.00
2022-10-16T11:56:06.055Z,8.50
2022-10-16T11:57:14.972Z,8.20
2022-10-16T11:58:35.631Z,7.30
2022-10-16T11:59:50.499Z,11.80
2022-10-16T12:01:12.264Z,6.80
2022-10-16T12:02:35.183Z,8.20
2022-10-16T12:03:44.902Z,7.00
2022-10-16T12:04:50.579Z,9.00
2022-10-16T12:06:01.908Z,9.00
2022-10-16T12:07:11.575Z,7.30
2022-10-16T12:08:16.689Z,10.10
2022-10-16T12:09:23.800Z,8.50
2022-10-16T12:10:29.135Z,10.70
2022-10-16T12:11:39.902Z,6.90
2022-10-16T12:12:41.732Z,10.50
2022-10-16T12:13:45.126Z,7.56
2022-10-16T12:15:11.182Z,8.20
2022-10-16T12:15:59.258Z,7.70
2022-10-16T12:16:57.827Z,8.10
2022-10-16T12:18:01.235Z,8.90
2022-10-16T12:19:16.306Z,7.60
2022-10-16T12:20:22.305Z,8.50
2022-10-16T12:21:27.774Z,7.90
2022-10-16T12:22:32.192Z,7.40
2022-10-16T12:23:41.712Z,7.80
2022-10-16T12:24:44.396Z,7.50
2022-10-16T12:25:50.411Z,7.64
2022-10-16T12:26:53.744Z,6.00
2022-10-16T12:28:16.938Z,8.10
2022-10-16T12:29:25.467Z,7.30
2022-10-16T12:30:35.009Z,7.40
2022-10-16T12:31:49.670Z,6.40
2022-10-16T12:32:49.582Z,8.80
2022-10-16T12:34:01.611Z,7.30
2022-10-16T12:35:07.350Z,10.50
2022-10-16T12:37:35.429Z,11.90
2022-10-16T12:38:41.959Z,9.00
2022-10-16T12:39:44.084Z,12.30
2022-10-16T12:40:49.539Z,10.10
2022-10-16T12:42:03.116Z,7.70
2022-10-16T12:43:28.890Z,9.70
2022-10-16T12:44:34.978Z,9.80
2022-10-16T12:45:36.847Z,9.90
2022-10-16T12:46:40.264Z,10.30
2022-10-16T12:47:51.441Z,10.30
2022-10-16T12:49:08.655Z,9.00
2022-10-16T12:50:00.433Z,8.50
2022-10-16T12:51:31.918Z,8.80
2022-10-16T12:52:39.647Z,7.90
2022-10-16T12:53:41.579Z,7.20
2022-10-16T12:54:43.927Z,6.56
2022-10-16T12:56:17.794Z,9.10
2022-10-16T12:57:35.553Z,7.30
2022-10-16T12:58:49.444Z,6.90
2022-10-16T13:00:20.937Z,8.40
2022-10-16T13:01:29.790Z,7.50
2022-10-16T13:02:41.140Z,7.40
2022-10-16T13:04:02.958Z,5.60
2022-10-16T13:05:29.840Z,7.30
2022-10-16T13:08:07.163Z,5.80
2022-10-16T13:09:15.523Z,5.10
2022-10-16T13:10:33.405Z,6.40
2022-10-16T13:12:00.499Z,7.50
2022-10-16T13:13:41.489Z,6.40
2022-10-16T13:14:59.249Z,5.40
2022-10-16T13:16:08.262Z,4.40
2022-10-16T13:17:26.629Z,5.40
2022-10-16T13:18:50.967Z,5.30
2022-10-16T13:20:00.041Z,4.60
2022-10-16T13:21:33.648Z,4.00
2022-10-16T13:22:45.782Z,5.20
2022-10-16T13:24:03.430Z,4.40
2022-10-16T13:25:24.784Z,6.10
2022-10-16T13:26:42.211Z,6.10
2022-10-16T13:27:59.011Z,6.40
2022-10-16T13:29:02.573Z,5.50
2022-10-16T13:30:20.749Z,7.10
2022-10-16T13:31:26.338Z,5.00
2022-10-16T13:32:29.685Z,6.90
2022-10-16T13:33:40.482Z,6.20
2022-10-16T13:34:45.936Z,7.00
2022-10-16T13:35:56.852Z,6.00
2022-10-16T13:36:59.373Z,4.80
2022-10-16T13:39:29.973Z,6.10
2022-10-16T13:40:32.876Z,7.60
2022-10-16T13:41:34.777Z,7.10
2022-10-16T13:42:36.641Z,9.00
2022-10-16T13:43:42.617Z,6.78
2022-10-16T13:44:48.151Z,6.50
2022-10-16T13:46:03.057Z,5.60
2022-10-16T13:47:06.249Z,8.70
2022-10-16T13:48:10.490Z,9.30
2022-10-16T13:49:18.668Z,7.10
2022-10-16T13:50:21.420Z,7.80
2022-10-16T13:52:25.911Z,6.10
2022-10-16T13:53:34.641Z,4.80
2022-10-16T13:54:36.960Z,10.50
2022-10-16T13:55:40.089Z,8.80
2022-10-16T13:56:42.090Z,8.90
2022-10-16T13:57:44.559Z,8.00
2022-10-16T13:58:46.831Z,8.40
2022-10-16T13:59:49.082Z,9.40
2022-10-16T14:00:56.334Z,14.70
2022-10-16T14:02:01.824Z,8.10
2022-10-16T14:03:15.839Z,6.00
2022-10-16T14:04:18.616Z,8.00
2022-10-16T14:05:22.135Z,7.55
2022-10-16T14:06:25.095Z,6.50
2022-10-16T14:07:30.395Z,6.73
2022-10-16T14:08:34.216Z,7.20
2022-10-16T14:09:37.858Z,7.00
2022-10-16T14:10:41.310Z,9.10
2022-10-16T14:11:53.145Z,9.20
2022-10-16T14:12:58.105Z,10.10
2022-10-16T14:14:00.874Z,7.70
2022-10-16T14:15:04.798Z,5.80
2022-10-16T14:16:10.223Z,6.20
2022-10-16T14:17:30.005Z,9.50
2022-10-16T14:18:33.578Z,7.20
2022-10-16T14:19:36.130Z,7.90
2022-10-16T14:20:38.324Z,8.10
2022-10-16T14:21:42.471Z,7.40
2022-10-16T14:22:44.785Z,4.60
2022-10-16T14:23:46.901Z,8.90
2022-10-16T14:24:48.871Z,9.20
2022-10-16T14:25:51.359Z,7.89
2022-10-16T14:26:53.902Z,7.45
2022-10-16T14:29:17.804Z,11.10
2022-10-16T14:30:22.245Z,11.50
2022-10-16T14:31:28.274Z,12.40
2022-10-16T14:32:30.195Z,9.50
2022-10-16T14:33:34.203Z,9.70
2022-10-16T14:34:39.566Z,14.30
2022-10-16T14:35:41.540Z,9.70
2022-10-16T14:36:45.995Z,10.50
2022-10-16T14:37:54.868Z,9.20
2022-10-16T14:39:03.951Z,12.60
2022-10-16T14:40:10.852Z,9.60
2022-10-16T14:41:13.865Z,14.80
2022-10-16T14:42:18.775Z,16.00
2022-10-16T14:43:24.799Z,14.40
2022-10-16T14:44:30.419Z,13.70